createdAt,value
2023-02-11T00:01:34.964Z,8.30
2023-02-11T00:04:04.025Z,8.10
2023-02-11T00:06:34.762Z,8.10
2023-02-11T00:09:05.761Z,8.10
2023-02-11T00:11:34.411Z,8.10
2023-02-11T00:14:05.522Z,8.10
2023-02-11T00:16:34.870Z,8.10
2023-02-11T00:19:05.641Z,8.10
2023-02-11T00:21:34.998Z,8.10
2023-02-11T00:24:05.182Z,8.20
2023-02-11T00:26:37.010Z,8.20
2023-02-11T00:29:06.765Z,8.20
2023-02-11T00:31:36.385Z,8.00
2023-02-11T00:34:04.678Z,8.20
2023-02-11T00:36:33.244Z,8.20
2023-02-11T00:39:01.761Z,8.20
2023-02-11T00:41:31.901Z,8.20
2023-02-11T00:44:03.591Z,8.20
2023-02-11T00:46:31.919Z,8.20
2023-02-11T00:49:00.118Z,8.30
2023-02-11T00:51:29.505Z,8.20
2023-02-11T00:53:57.761Z,8.20
2023-02-11T00:56:26.333Z,8.20
2023-02-11T00:58:55.963Z,8.40
2023-02-11T01:01:24.161Z,8.30
2023-02-11T01:04:06.170Z,8.20
2023-02-11T01:06:34.373Z,8.30
2023-02-11T01:09:02.407Z,8.30
2023-02-11T01:11:30.581Z,8.30
2023-02-11T01:14:00.123Z,8.20
2023-02-11T01:16:28.622Z,8.30
2023-02-11T01:18:56.711Z,8.30
2023-02-11T01:21:25.077Z,8.30
2023-02-11T01:23:53.716Z,8.30
2023-02-11T01:26:21.623Z,8.30
2023-02-11T01:28:49.582Z,8.20
2023-02-11T01:31:19.103Z,8.20
2023-02-11T01:33:47.237Z,8.20
2023-02-11T01:36:15.388Z,8.20
2023-02-11T01:38:44.658Z,8.20
2023-02-11T01:41:15.917Z,8.10
2023-02-11T01:43:46.321Z,8.20
2023-02-11T01:46:35.556Z,8.10
2023-02-11T01:49:10.927Z,8.10
2023-02-11T01:51:43.647Z,8.00
2023-02-11T01:54:32.831Z,8.00
2023-02-11T01:57:19.729Z,8.00
2023-02-11T01:59:55.490Z,7.80
2023-02-11T02:02:27.861Z,7.80
2023-02-11T02:05:04.281Z,7.80
2023-02-11T02:07:37.426Z,7.70
2023-02-11T02:10:12.633Z,7.60
2023-02-11T02:12:41.079Z,7.60
2023-02-11T02:15:27.734Z,7.50
2023-02-11T02:18:01.143Z,7.50
2023-02-11T02:20:57.716Z,7.50
2023-02-11T02:23:37.478Z,7.50
2023-02-11T02:26:23.020Z,7.40
2023-02-11T02:29:10.578Z,7.30
2023-02-11T02:32:04.355Z,7.30
2023-02-11T02:34:39.228Z,7.30
2023-02-11T02:37:11.533Z,7.30
2023-02-11T02:39:39.894Z,7.00
2023-02-11T02:42:08.581Z,7.10
2023-02-11T02:44:37.114Z,7.20
2023-02-11T02:47:05.263Z,7.10
2023-02-11T02:49:34.821Z,7.20
2023-02-11T02:52:15.761Z,7.00
2023-02-11T02:55:09.968Z,7.10
2023-02-11T02:57:50.023Z,7.00
2023-02-11T03:00:31.681Z,7.00
2023-02-11T03:03:16.196Z,7.00
2023-02-11T03:05:56.057Z,6.90
2023-02-11T03:08:30.636Z,6.90
2023-02-11T03:11:01.073Z,6.90
2023-02-11T03:13:34.115Z,7.20
2023-02-11T03:16:08.579Z,6.90
2023-02-11T03:18:40.297Z,6.90
2023-02-11T03:21:11.419Z,7.00
2023-02-11T03:23:43.479Z,7.00
2023-02-11T03:26:18.538Z,7.20
2023-02-11T03:28:53.769Z,7.00
2023-02-11T03:31:28.871Z,7.10
2023-02-11T03:34:03.688Z,6.90
2023-02-11T03:36:41.221Z,7.10
2023-02-11T03:39:12.141Z,7.20
2023-02-11T03:41:43.403Z,7.10
2023-02-11T03:44:15.145Z,7.20
2023-02-11T03:46:48.987Z,7.10
2023-02-11T03:49:21.497Z,7.30
2023-02-11T03:51:54.101Z,7.20
2023-02-11T03:54:32.854Z,7.10
2023-02-11T03:57:03.081Z,7.30
2023-02-11T03:59:31.682Z,7.00
2023-02-11T04:02:00.491Z,7.00
2023-02-11T04:04:28.602Z,7.00
2023-02-11T04:06:58.425Z,6.90
2023-02-11T04:09:26.525Z,7.00
2023-02-11T04:11:54.550Z,6.90
2023-02-11T04:14:22.843Z,6.80
2023-02-11T04:16:50.918Z,7.00
2023-02-11T04:19:18.979Z,6.80
2023-02-11T04:21:46.979Z,6.90
2023-02-11T04:24:16.784Z,6.80
2023-02-11T04:26:44.770Z,6.80
2023-02-11T04:29:12.907Z,7.20
2023-02-11T04:31:41.078Z,6.90
2023-02-11T04:34:08.983Z,6.90
2023-02-11T04:36:36.991Z,6.70
2023-02-11T04:39:05.281Z,6.70
2023-02-11T04:41:35.211Z,6.60
2023-02-11T04:44:03.260Z,6.80
2023-02-11T04:46:31.819Z,6.60
2023-02-11T04:48:59.921Z,6.60
2023-02-11T04:51:27.917Z,6.60
2023-02-11T04:53:56.002Z,6.60
2023-02-11T04:56:26.380Z,6.60
2023-02-11T04:58:55.864Z,6.60
2023-02-11T05:01:24.179Z,6.80
2023-02-11T05:03:52.257Z,6.60
2023-02-11T05:06:20.296Z,6.60
2023-02-11T05:08:48.381Z,6.70
2023-02-11T05:11:18.539Z,6.70
2023-02-11T05:13:47.018Z,7.00
2023-02-11T05:16:17.004Z,6.70
2023-02-11T05:18:46.491Z,6.80
2023-02-11T05:21:16.531Z,6.80
2023-02-11T05:23:45.581Z,6.90
2023-02-11T05:26:15.281Z,6.80
2023-02-11T05:28:44.020Z,6.80
2023-02-11T05:31:14.574Z,6.90
2023-02-11T05:33:44.516Z,6.80
2023-02-11T05:36:14.603Z,6.70
2023-02-11T05:38:43.371Z,6.70
2023-02-11T05:41:12.575Z,6.90
2023-02-11T05:43:40.632Z,6.70
2023-02-11T05:46:08.574Z,6.70
2023-02-11T05:48:36.619Z,6.70
2023-02-11T05:51:06.807Z,6.70
2023-02-11T05:53:34.905Z,6.80
2023-02-11T05:56:03.461Z,6.80
2023-02-11T05:58:33.783Z,6.80
2023-02-11T06:01:01.817Z,6.80
2023-02-11T06:03:29.954Z,6.70
2023-02-11T06:05:58.065Z,6.80
2023-02-11T06:08:27.826Z,6.70
2023-02-11T06:10:55.874Z,6.80
2023-02-11T06:13:24.316Z,6.70
2023-02-11T06:15:58.001Z,6.70
2023-02-11T06:18:26.508Z,6.90
2023-02-11T06:20:54.763Z,6.80
2023-02-11T06:23:23.162Z,6.90
2023-02-11T06:25:53.112Z,6.80
2023-02-11T06:28:21.571Z,6.80
2023-02-11T06:30:49.832Z,6.90
2023-02-11T06:33:17.808Z,6.90
2023-02-11T06:35:45.910Z,6.90
2023-02-11T06:38:13.949Z,7.00
2023-02-11T06:40:41.955Z,7.10
2023-02-11T06:43:11.348Z,7.00
2023-02-11T06:45:39.486Z,6.90
2023-02-11T06:48:07.601Z,6.90
2023-02-11T06:50:35.695Z,6.80
2023-02-11T06:53:03.847Z,6.80
2023-02-11T06:55:32.146Z,6.80
2023-02-11T06:58:00.127Z,6.60
2023-02-11T07:00:32.385Z,6.70
2023-02-11T07:03:02.145Z,6.80
2023-02-11T07:05:30.657Z,6.60
2023-02-11T07:07:58.930Z,6.60
2023-02-11T07:10:26.976Z,6.60
2023-02-11T07:12:57.113Z,6.80
2023-02-11T07:15:27.248Z,6.60
2023-02-11T07:17:56.964Z,6.80
2023-02-11T07:20:25.282Z,6.70
2023-02-11T07:22:53.357Z,6.70
2023-02-11T07:25:21.578Z,6.80
2023-02-11T07:27:50.175Z,6.90
2023-02-11T07:30:18.543Z,6.80
2023-02-11T07:32:46.833Z,6.80
2023-02-11T07:35:17.266Z,6.80
2023-02-11T07:37:45.471Z,6.80
2023-02-11T07:40:13.742Z,6.70
2023-02-11T07:42:41.994Z,6.90
2023-02-11T07:45:10.631Z,7.40
2023-02-11T07:47:38.860Z,7.00
2023-02-11T07:50:08.485Z,7.20
2023-02-11T07:52:38.245Z,7.10
2023-02-11T07:55:07.056Z,7.10
2023-02-11T07:57:35.343Z,7.10
2023-02-11T08:00:03.426Z,7.30
2023-02-11T08:02:31.740Z,7.20
2023-02-11T08:04:59.901Z,7.20
2023-02-11T08:07:29.668Z,7.20
2023-02-11T08:09:59.051Z,7.20
2023-02-11T08:12:27.297Z,7.20
2023-02-11T08:14:56.322Z,7.30
2023-02-11T08:17:24.615Z,7.30
2023-02-11T08:19:53.014Z,7.40
2023-02-11T08:22:21.593Z,7.30
2023-02-11T08:24:52.248Z,7.40
2023-02-11T08:27:24.462Z,7.40
2023-02-11T08:29:52.650Z,7.30
2023-02-11T08:32:20.953Z,7.60
2023-02-11T08:34:52.975Z,7.70
2023-02-11T08:37:21.306Z,7.60
2023-02-11T08:39:50.188Z,7.80
2023-02-11T08:42:18.265Z,7.80
2023-02-11T08:44:47.663Z,7.80
2023-02-11T08:47:16.193Z,8.20
2023-02-11T08:49:44.235Z,8.00
2023-02-11T08:52:12.376Z,8.10
2023-02-11T08:54:40.497Z,8.20
2023-02-11T08:57:08.574Z,8.30
2023-02-11T08:59:36.680Z,8.40
2023-02-11T09:02:06.415Z,8.50
2023-02-11T09:04:34.766Z,8.70
2023-02-11T09:07:02.836Z,8.70
2023-02-11T09:09:31.858Z,8.80
2023-02-11T09:12:01.471Z,8.90
2023-02-11T09:14:31.708Z,9.00
2023-02-11T09:16:59.825Z,9.00
2023-02-11T09:19:29.437Z,9.10
2023-02-11T09:21:57.876Z,9.10
2023-02-11T09:24:27.181Z,9.20
2023-02-11T09:26:55.322Z,9.20
2023-02-11T09:29:23.521Z,9.20
2023-02-11T09:31:52.090Z,9.40
2023-02-11T09:34:20.227Z,9.40
2023-02-11T09:36:49.812Z,9.50
2023-02-11T09:39:20.444Z,9.50
2023-02-11T09:42:11.237Z,9.50
2023-02-11T09:44:41.536Z,9.50
2023-02-11T09:47:26.844Z,9.60
2023-02-11T09:50:00.001Z,9.60
2023-02-11T09:52:37.391Z,9.60
2023-02-11T09:55:12.490Z,9.70
2023-02-11T09:57:41.065Z,9.70
2023-02-11T10:00:21.389Z,9.80
2023-02-11T10:03:12.167Z,9.80
2023-02-11T10:06:01.048Z,9.80
2023-02-11T10:08:41.423Z,9.90
2023-02-11T10:11:31.002Z,9.90
2023-02-11T10:14:08.317Z,10.00
2023-02-11T10:16:52.410Z,10.00
2023-02-11T10:19:35.864Z,10.10
2023-02-11T10:22:11.859Z,10.10
2023-02-11T10:24:43.519Z,10.30
2023-02-11T10:27:17.754Z,10.40
2023-02-11T10:29:52.547Z,10.20
2023-02-11T10:32:30.927Z,10.30
2023-02-11T10:35:03.512Z,10.30
2023-02-11T10:37:31.846Z,10.60
2023-02-11T10:40:01.459Z,10.40
2023-02-11T10:42:30.562Z,10.40
2023-02-11T10:45:01.859Z,10.40
2023-02-11T10:47:37.261Z,10.50
2023-02-11T10:50:20.590Z,10.40
2023-02-11T10:52:48.924Z,10.50
2023-02-11T10:55:21.992Z,10.50
2023-02-11T10:57:57.739Z,10.50
2023-02-11T11:00:36.999Z,10.60
2023-02-11T11:03:08.238Z,10.60
2023-02-11T11:05:39.121Z,10.50
2023-02-11T11:08:10.190Z,10.60
2023-02-11T11:10:44.487Z,10.40
2023-02-11T11:13:32.113Z,10.60
2023-02-11T11:16:25.791Z,10.60
2023-02-11T11:18:55.434Z,10.50
2023-02-11T11:21:26.254Z,10.60
2023-02-11T11:23:57.665Z,10.70
2023-02-11T11:26:42.095Z,10.70
2023-02-11T11:29:19.417Z,10.70
2023-02-11T11:31:51.328Z,10.70
2023-02-11T11:34:30.000Z,10.70
2023-02-11T11:36:59.156Z,10.90
2023-02-11T11:39:31.520Z,10.70
2023-02-11T11:42:02.402Z,10.70
2023-02-11T11:44:33.280Z,10.70
2023-02-11T11:47:23.406Z,10.70
2023-02-11T11:50:06.546Z,10.70
2023-02-11T11:52:45.572Z,10.70
2023-02-11T11:55:22.068Z,10.80
2023-02-11T11:57:51.933Z,10.70
2023-02-11T12:00:22.794Z,10.70
2023-02-11T12:03:27.163Z,10.70
2023-02-11T12:06:13.491Z,10.70
2023-02-11T12:08:52.958Z,10.70
2023-02-11T12:11:27.110Z,10.80
2023-02-11T12:14:10.385Z,10.70
2023-02-11T12:17:01.367Z,10.70
2023-02-11T12:19:56.396Z,10.70
2023-02-11T12:22:39.641Z,10.80
2023-02-11T12:25:28.659Z,10.80
2023-02-11T12:28:09.050Z,10.80
2023-02-11T12:30:58.253Z,11.00
2023-02-11T12:33:39.639Z,10.80
2023-02-11T12:36:14.050Z,10.80
2023-02-11T12:39:00.315Z,10.90
2023-02-11T12:42:04.431Z,10.90
2023-02-11T12:44:49.062Z,10.80
2023-02-11T12:47:29.437Z,10.90
2023-02-11T12:50:18.910Z,10.90
2023-02-11T12:53:05.232Z,10.90
2023-02-11T12:55:39.474Z,10.90
2023-02-11T12:58:16.051Z,10.90
2023-02-11T13:00:49.715Z,10.90
2023-02-11T13:03:25.603Z,10.90
2023-02-11T13:05:56.607Z,10.90
2023-02-11T13:08:34.308Z,10.90
2023-02-11T13:11:05.641Z,10.90
2023-02-11T13:13:40.287Z,11.00
2023-02-11T13:16:14.642Z,11.00
2023-02-11T13:18:52.472Z,11.00
2023-02-11T13:21:39.469Z,11.00
2023-02-11T13:24:17.116Z,11.00
2023-02-11T13:26:53.174Z,11.10
2023-02-11T13:29:30.889Z,11.20
2023-02-11T13:32:08.568Z,11.00
2023-02-11T13:35:04.946Z,11.20
2023-02-11T13:37:37.778Z,11.10
2023-02-11T13:40:21.098Z,11.20
2023-02-11T13:42:52.648Z,11.20
2023-02-11T13:45:33.993Z,11.20
2023-02-11T13:48:05.421Z,11.20
2023-02-11T13:50:39.230Z,11.00
2023-02-11T13:53:09.353Z,11.20
2023-02-11T13:55:38.212Z,11.20
2023-02-11T13:58:37.200Z,11.10
2023-02-11T14:01:05.789Z,11.10
2023-02-11T14:03:53.828Z,11.10
2023-02-11T14:06:45.196Z,11.20
2023-02-11T14:09:37.108Z,11.10
2023-02-11T14:12:26.132Z,11.10
2023-02-11T14:15:24.236Z,11.10
2023-02-11T14:17:52.468Z,11.10
2023-02-11T14:20:39.036Z,11.10
2023-02-11T14:23:08.861Z,11.10
2023-02-11T14:25:38.862Z,11.10
2023-02-11T14:28:16.008Z,11.10
2023-02-11T14:30:51.526Z,11.10
2023-02-11T14:33:43.667Z,11.10
2023-02-11T14:36:30.681Z,11.10
2023-02-11T14:39:09.068Z,11.10
2023-02-11T14:41:41.770Z,11.20
2023-02-11T14:44:17.367Z,11.10
2023-02-11T14:46:47.210Z,11.10
2023-02-11T14:49:27.055Z,11.20
2023-02-11T14:51:58.077Z,11.10
2023-02-11T14:54:30.798Z,11.10
2023-02-11T14:57:11.502Z,11.10
2023-02-11T14:59:40.206Z,11.10
2023-02-11T15:02:22.125Z,11.30
2023-02-11T15:04:50.349Z,11.00
2023-02-11T15:07:19.211Z,11.00
2023-02-11T15:09:51.463Z,11.00
2023-02-11T15:12:25.318Z,11.00
2023-02-11T15:14:56.580Z,10.90
2023-02-11T15:17:28.301Z,10.90
2023-02-11T15:20:00.441Z,10.90
2023-02-11T15:22:32.857Z,10.90
2023-02-11T15:25:05.139Z,10.90
2023-02-11T15:27:40.466Z,10.90
2023-02-11T15:30:33.040Z,11.00
2023-02-11T15:33:06.120Z,10.80
2023-02-11T15:35:36.724Z,10.80
2023-02-11T15:38:05.881Z,10.80
2023-02-11T15:40:37.787Z,10.80
2023-02-11T15:43:12.310Z,10.80
2023-02-11T15:45:44.003Z,10.90
2023-02-11T15:48:15.870Z,10.80
2023-02-11T15:50:50.195Z,10.80
2023-02-11T15:53:25.494Z,10.60
2023-02-11T15:56:00.305Z,10.80
2023-02-11T15:58:28.854Z,10.70
2023-02-11T16:00:59.974Z,10.60
2023-02-11T16:03:33.016Z,10.60
2023-02-11T16:06:20.009Z,10.60
2023-02-11T16:09:03.207Z,10.60
2023-02-11T16:11:35.758Z,10.70
2023-02-11T16:14:20.097Z,10.60
2023-02-11T16:16:51.418Z,10.50
2023-02-11T16:19:23.525Z,10.60
2023-02-11T16:21:54.981Z,10.40
2023-02-11T16:24:28.080Z,10.40
2023-02-11T16:27:00.825Z,10.40
2023-02-11T16:29:30.527Z,10.40
2023-02-11T16:32:08.800Z,10.30
2023-02-11T16:34:37.356Z,10.30
2023-02-11T16:37:06.632Z,10.30
2023-02-11T16:39:35.254Z,10.50
2023-02-11T16:42:07.511Z,10.30
2023-02-11T16:44:36.727Z,10.30
2023-02-11T16:47:07.758Z,10.30
2023-02-11T16:49:38.281Z,10.30
2023-02-11T16:52:09.264Z,10.30
2023-02-11T16:54:37.308Z,10.30
2023-02-11T16:57:14.907Z,10.20
2023-02-11T16:59:43.230Z,10.40
2023-02-11T17:02:15.874Z,10.20
2023-02-11T17:04:44.880Z,10.20
2023-02-11T17:07:13.098Z,10.20
2023-02-11T17:09:41.512Z,10.30
2023-02-11T17:12:10.993Z,10.40
2023-02-11T17:14:39.236Z,10.20
2023-02-11T17:17:07.976Z,10.20
2023-02-11T17:19:36.091Z,10.10
2023-02-11T17:22:04.416Z,10.10
2023-02-11T17:24:33.066Z,10.10
2023-02-11T17:27:01.199Z,10.10
2023-02-11T17:29:30.925Z,10.10
2023-02-11T17:31:59.170Z,10.10
2023-02-11T17:34:29.181Z,9.90
2023-02-11T17:36:57.933Z,10.00
2023-02-11T17:39:25.971Z,10.10
2023-02-11T17:41:53.877Z,10.10
2023-02-11T17:44:22.047Z,10.20
2023-02-11T17:46:51.542Z,10.10
2023-02-11T17:49:20.385Z,10.00
2023-02-11T17:51:48.525Z,10.10
2023-02-11T17:54:20.591Z,10.00
2023-02-11T17:56:50.801Z,10.00
2023-02-11T17:59:19.249Z,10.10
2023-02-11T18:01:47.406Z,10.10
2023-02-11T18:04:18.797Z,10.10
2023-02-11T18:06:50.577Z,10.10
2023-02-11T18:09:18.869Z,10.00
2023-02-11T18:11:48.452Z,10.00
2023-02-11T18:14:16.489Z,10.00
2023-02-11T18:16:46.056Z,9.90
2023-02-11T18:19:16.261Z,10.00
2023-02-11T18:21:44.540Z,10.00
2023-02-11T18:24:12.693Z,10.00
2023-02-11T18:26:41.684Z,10.00
2023-02-11T18:29:10.269Z,10.00
2023-02-11T18:31:38.566Z,10.00
2023-02-11T18:34:10.592Z,10.00
2023-02-11T18:36:40.166Z,10.00
2023-02-11T18:39:08.374Z,10.00
2023-02-11T18:41:36.324Z,9.90
2023-02-11T18:44:05.340Z,10.10
2023-02-11T18:46:33.579Z,9.90
2023-02-11T18:49:01.768Z,9.90
2023-02-11T18:51:31.793Z,9.70
2023-02-11T18:54:01.411Z,9.80
2023-02-11T18:56:29.686Z,9.80
2023-02-11T18:59:01.384Z,9.80
2023-02-11T19:01:31.847Z,9.90
2023-02-11T19:04:03.002Z,9.90
2023-02-11T19:06:33.115Z,9.90
2023-02-11T19:09:05.627Z,9.90
2023-02-11T19:11:50.464Z,9.90
2023-02-11T19:14:21.667Z,10.00
2023-02-11T19:16:51.399Z,9.90
2023-02-11T19:19:20.137Z,9.90
2023-02-11T19:21:48.924Z,9.90
2023-02-11T19:24:20.219Z,9.80
2023-02-11T19:26:51.972Z,10.00
2023-02-11T19:29:20.399Z,9.90
2023-02-11T19:31:48.537Z,10.00
2023-02-11T19:34:19.819Z,9.90
2023-02-11T19:36:48.108Z,9.90
2023-02-11T19:39:16.420Z,9.90
2023-02-11T19:41:47.232Z,9.90
2023-02-11T19:44:16.148Z,10.00
2023-02-11T19:46:44.269Z,9.90
2023-02-11T19:49:17.602Z,9.90
2023-02-11T19:51:45.773Z,10.10
2023-02-11T19:54:13.775Z,10.10
2023-02-11T19:56:41.817Z,9.90
2023-02-11T19:59:11.877Z,9.80
2023-02-11T20:01:39.952Z,9.90
2023-02-11T20:04:08.648Z,9.80
2023-02-11T20:06:37.303Z,9.90
2023-02-11T20:09:10.068Z,9.70
2023-02-11T20:11:38.976Z,9.80
2023-02-11T20:14:08.357Z,9.70
2023-02-11T20:16:48.085Z,9.80
2023-02-11T20:19:18.386Z,9.80
2023-02-11T20:21:48.107Z,9.80
2023-02-11T20:24:17.125Z,9.80
2023-02-11T20:26:46.879Z,10.00
2023-02-11T20:29:15.383Z,10.00
2023-02-11T20:31:45.223Z,9.90
2023-02-11T20:34:13.635Z,9.80
2023-02-11T20:36:41.982Z,9.90
2023-02-11T20:39:17.266Z,9.90
2023-02-11T20:41:45.953Z,9.80
2023-02-11T20:44:15.201Z,9.90
2023-02-11T20:46:47.085Z,9.80
2023-02-11T20:49:16.696Z,9.80
2023-02-11T20:51:45.276Z,9.80
2023-02-11T20:54:14.949Z,9.80
2023-02-11T20:56:44.987Z,9.80
2023-02-11T20:59:16.728Z,9.80
2023-02-11T21:01:49.175Z,9.90
2023-02-11T21:04:19.465Z,9.70
2023-02-11T21:06:49.696Z,9.90
2023-02-11T21:09:19.937Z,9.90
2023-02-11T21:11:48.632Z,9.80
2023-02-11T21:14:18.153Z,9.80
2023-02-11T21:16:50.899Z,9.80
2023-02-11T21:19:19.182Z,9.90
2023-02-11T21:21:47.270Z,9.90
2023-02-11T21:24:15.697Z,9.90
2023-02-11T21:26:44.491Z,10.00
2023-02-11T21:29:13.218Z,10.00
2023-02-11T21:31:41.485Z,9.90
2023-02-11T21:34:11.441Z,9.90
2023-02-11T21:36:39.813Z,9.90
2023-02-11T21:39:08.952Z,9.90
2023-02-11T21:41:37.098Z,9.90
2023-02-11T21:44:05.161Z,9.80
2023-02-11T21:46:36.420Z,9.80
2023-02-11T21:49:06.532Z,9.80
2023-02-11T21:51:35.962Z,9.80
2023-02-11T21:54:04.813Z,9.80
2023-02-11T21:56:35.523Z,9.80
2023-02-11T21:59:04.037Z,9.80
2023-02-11T22:01:35.258Z,9.80
2023-02-11T22:04:03.726Z,9.80
2023-02-11T22:06:34.491Z,9.70
2023-02-11T22:09:06.828Z,9.70
2023-02-11T22:11:35.072Z,9.70
2023-02-11T22:14:03.095Z,9.70
2023-02-11T22:16:35.287Z,9.70
2023-02-11T22:19:03.478Z,9.60
2023-02-11T22:21:31.963Z,9.60
2023-02-11T22:24:00.218Z,9.60
2023-02-11T22:26:29.760Z,9.60
2023-02-11T22:28:58.229Z,9.60
2023-02-11T22:31:28.406Z,9.60
2023-02-11T22:33:57.284Z,9.70
2023-02-11T22:36:26.558Z,9.70
2023-02-11T22:38:55.032Z,9.60
2023-02-11T22:41:23.787Z,9.60
2023-02-11T22:43:53.469Z,9.60
2023-02-11T22:46:21.784Z,9.60
2023-02-11T22:48:50.602Z,9.60
2023-02-11T22:51:20.913Z,9.70
2023-02-11T22:53:54.026Z,9.70
2023-02-11T22:56:22.920Z,9.50
2023-02-11T22:58:53.286Z,9.50
2023-02-11T23:01:21.655Z,9.60
2023-02-11T23:03:49.819Z,9.50
2023-02-11T23:06:18.625Z,9.60
2023-02-11T23:08:47.154Z,9.60
2023-02-11T23:11:18.502Z,9.60
2023-02-11T23:13:48.055Z,9.50
2023-02-11T23:16:20.109Z,9.60
2023-02-11T23:18:49.989Z,9.60
2023-02-11T23:21:21.246Z,9.50
2023-02-11T23:23:50.171Z,9.50
2023-02-11T23:26:19.193Z,9.50
2023-02-11T23:28:48.444Z,9.70
2023-02-11T23:31:21.321Z,9.70
2023-02-11T23:33:50.217Z,9.60
2023-02-11T23:36:20.978Z,9.60
2023-02-11T23:38:49.793Z,9.60
2023-02-11T23:41:18.704Z,9.60
2023-02-11T23:43:50.588Z,9.50
2023-02-11T23:46:21.824Z,9.60
2023-02-11T23:48:50.277Z,9.50
2023-02-11T23:51:19.103Z,9.50
2023-02-11T23:53:49.088Z,9.50
2023-02-11T23:56:19.434Z,9.40
2023-02-11T23:58:49.841Z,9.50
